sensor_id;sensor_type;location;lat;lon;timestamp;P1;durP1;ratioP1;P2;durP2;ratioP2
64986;SDS011;67903;52.108;9.358;2023-08-20T00:01:17;20.00;;;18.10;;
64986;SDS011;67903;52.108;9.358;2023-08-20T00:04:08;19.02;;;17.17;;
64986;SDS011;67903;52.108;9.358;2023-08-20T00:06:54;18.05;;;16.35;;
64986;SDS011;67903;52.108;9.358;2023-08-20T00:09:40;17.73;;;16.23;;
64986;SDS011;67903;52.108;9.358;2023-08-20T00:12:25;17.65;;;15.77;;
64986;SDS011;67903;52.108;9.358;2023-08-20T00:15:11;17.50;;;15.85;;
64986;SDS011;67903;52.108;9.358;2023-08-20T00:17:56;19.27;;;17.40;;
64986;SDS011;67903;52.108;9.358;2023-08-20T00:20:42;18.60;;;16.80;;
64986;SDS011;67903;52.108;9.358;2023-08-20T00:23:30;21.75;;;19.65;;
64986;SDS011;67903;52.108;9.358;2023-08-20T00:26:16;18.77;;;17.08;;
64986;SDS011;67903;52.108;9.358;2023-08-20T00:29:01;21.30;;;19.20;;
64986;SDS011;67903;52.108;9.358;2023-08-20T00:31:47;21.90;;;19.58;;
64986;SDS011;67903;52.108;9.358;2023-08-20T00:34:33;20.88;;;18.83;;
64986;SDS011;67903;52.108;9.358;2023-08-20T00:37:18;21.27;;;19.17;;
64986;SDS011;67903;52.108;9.358;2023-08-20T00:40:05;21.95;;;19.77;;
64986;SDS011;67903;52.108;9.358;2023-08-20T00:42:51;19.17;;;17.38;;
64986;SDS011;67903;52.108;9.358;2023-08-20T00:45:36;19.67;;;17.80;;
64986;SDS011;67903;52.108;9.358;2023-08-20T00:48:23;19.05;;;17.27;;
64986;SDS011;67903;52.108;9.358;2023-08-20T00:51:09;17.85;;;16.15;;
64986;SDS011;67903;52.108;9.358;2023-08-20T00:53:57;16.92;;;15.13;;
64986;SDS011;67903;52.108;9.358;2023-08-20T00:56:42;18.05;;;15.55;;
64986;SDS011;67903;52.108;9.358;2023-08-20T00:59:30;17.55;;;15.65;;
64986;SDS011;67903;52.108;9.358;2023-08-20T01:02:17;15.30;;;13.90;;
64986;SDS011;67903;52.108;9.358;2023-08-20T01:05:03;16.67;;;15.05;;
64986;SDS011;67903;52.108;9.358;2023-08-20T01:11:20;14.45;;;13.00;;
64986;SDS011;67903;52.108;9.358;2023-08-20T01:14:14;13.25;;;11.85;;
64986;SDS011;67903;52.108;9.358;2023-08-20T01:17:01;13.48;;;12.15;;
64986;SDS011;67903;52.108;9.358;2023-08-20T01:19:47;13.77;;;11.10;;
64986;SDS011;67903;52.108;9.358;2023-08-20T01:29:07;11.48;;;10.00;;
64986;SDS011;67903;52.108;9.358;2023-08-20T01:31:54;11.18;;;9.27;;
64986;SDS011;67903;52.108;9.358;2023-08-20T01:34:40;10.45;;;9.38;;
64986;SDS011;67903;52.108;9.358;2023-08-20T01:37:25;11.52;;;9.38;;
64986;SDS011;67903;52.108;9.358;2023-08-20T01:40:11;9.65;;;8.63;;
64986;SDS011;67903;52.108;9.358;2023-08-20T01:42:57;11.30;;;9.23;;
64986;SDS011;67903;52.108;9.358;2023-08-20T01:45:42;9.93;;;9.00;;
64986;SDS011;67903;52.108;9.358;2023-08-20T01:48:28;12.85;;;8.82;;
64986;SDS011;67903;52.108;9.358;2023-08-20T01:51:15;11.88;;;9.88;;
64986;SDS011;67903;52.108;9.358;2023-08-20T01:54:01;9.55;;;8.48;;
64986;SDS011;67903;52.108;9.358;2023-08-20T01:56:47;10.60;;;8.65;;
64986;SDS011;67903;52.108;9.358;2023-08-20T01:59:33;11.65;;;9.00;;
64986;SDS011;67903;52.108;9.358;2023-08-20T02:02:18;9.35;;;8.45;;
64986;SDS011;67903;52.108;9.358;2023-08-20T02:05:04;10.50;;;9.15;;
64986;SDS011;67903;52.108;9.358;2023-08-20T02:07:49;9.63;;;8.70;;
64986;SDS011;67903;52.108;9.358;2023-08-20T02:10:35;10.82;;;7.95;;
64986;SDS011;67903;52.108;9.358;2023-08-20T02:13:22;8.70;;;7.78;;
64986;SDS011;67903;52.108;9.358;2023-08-20T02:16:08;9.40;;;8.50;;
64986;SDS011;67903;52.108;9.358;2023-08-20T02:18:53;8.55;;;7.72;;
64986;SDS011;67903;52.108;9.358;2023-08-20T02:21:39;10.73;;;8.75;;
64986;SDS011;67903;52.108;9.358;2023-08-20T02:24:25;11.60;;;8.73;;
64986;SDS011;67903;52.108;9.358;2023-08-20T02:27:10;9.00;;;8.02;;
64986;SDS011;67903;52.108;9.358;2023-08-20T02:29:56;9.70;;;8.02;;
64986;SDS011;67903;52.108;9.358;2023-08-20T02:32:41;9.52;;;8.60;;
64986;SDS011;67903;52.108;9.358;2023-08-20T02:35:27;10.93;;;8.10;;
64986;SDS011;67903;52.108;9.358;2023-08-20T02:38:12;9.52;;;8.15;;
64986;SDS011;67903;52.108;9.358;2023-08-20T02:40:59;8.85;;;7.88;;
64986;SDS011;67903;52.108;9.358;2023-08-20T02:43:47;11.65;;;8.70;;
64986;SDS011;67903;52.108;9.358;2023-08-20T02:46:33;12.20;;;9.02;;
64986;SDS011;67903;52.108;9.358;2023-08-20T02:49:18;11.57;;;8.48;;
64986;SDS011;67903;52.108;9.358;2023-08-20T02:52:04;9.73;;;8.65;;
64986;SDS011;67903;52.108;9.358;2023-08-20T02:54:50;10.52;;;8.77;;
64986;SDS011;67903;52.108;9.358;2023-08-20T02:57:35;9.55;;;8.27;;
64986;SDS011;67903;52.108;9.358;2023-08-20T03:00:22;10.95;;;9.55;;
64986;SDS011;67903;52.108;9.358;2023-08-20T03:03:07;12.88;;;9.93;;
64986;SDS011;67903;52.108;9.358;2023-08-20T03:05:55;11.18;;;9.60;;
64986;SDS011;67903;52.108;9.358;2023-08-20T03:08:41;12.10;;;9.32;;
64986;SDS011;67903;52.108;9.358;2023-08-20T03:11:26;12.48;;;9.82;;
64986;SDS011;67903;52.108;9.358;2023-08-20T03:14:12;9.95;;;8.93;;
64986;SDS011;67903;52.108;9.358;2023-08-20T03:16:57;10.25;;;9.32;;
64986;SDS011;67903;52.108;9.358;2023-08-20T03:19:55;12.35;;;9.30;;
64986;SDS011;67903;52.108;9.358;2023-08-20T03:22:44;9.93;;;8.55;;
64986;SDS011;67903;52.108;9.358;2023-08-20T03:25:30;8.98;;;8.05;;
64986;SDS011;67903;52.108;9.358;2023-08-20T03:28:17;9.75;;;8.52;;
64986;SDS011;67903;52.108;9.358;2023-08-20T03:31:03;11.27;;;8.07;;
64986;SDS011;67903;52.108;9.358;2023-08-20T03:33:54;10.60;;;7.55;;
64986;SDS011;67903;52.108;9.358;2023-08-20T03:36:39;9.50;;;8.50;;
64986;SDS011;67903;52.108;9.358;2023-08-20T03:39:25;11.27;;;9.43;;
64986;SDS011;67903;52.108;9.358;2023-08-20T03:42:10;12.68;;;10.13;;
64986;SDS011;67903;52.108;9.358;2023-08-20T03:44:56;10.45;;;9.38;;
64986;SDS011;67903;52.108;9.358;2023-08-20T03:47:41;10.20;;;9.10;;
64986;SDS011;67903;52.108;9.358;2023-08-20T03:50:29;9.75;;;8.73;;
64986;SDS011;67903;52.108;9.358;2023-08-20T03:53:14;11.63;;;10.15;;
64986;SDS011;67903;52.108;9.358;2023-08-20T03:56:00;12.15;;;9.52;;
64986;SDS011;67903;52.108;9.358;2023-08-20T03:58:46;10.25;;;9.10;;
64986;SDS011;67903;52.108;9.358;2023-08-20T04:01:32;10.07;;;8.75;;
64986;SDS011;67903;52.108;9.358;2023-08-20T04:04:18;11.05;;;8.38;;
64986;SDS011;67903;52.108;9.358;2023-08-20T04:07:03;11.68;;;9.65;;
64986;SDS011;67903;52.108;9.358;2023-08-20T04:09:49;9.57;;;8.65;;
64986;SDS011;67903;52.108;9.358;2023-08-20T04:12:35;11.32;;;9.32;;
64986;SDS011;67903;52.108;9.358;2023-08-20T04:15:21;10.00;;;9.00;;
64986;SDS011;67903;52.108;9.358;2023-08-20T04:18:06;9.38;;;7.82;;
64986;SDS011;67903;52.108;9.358;2023-08-20T04:20:53;13.60;;;7.57;;
64986;SDS011;67903;52.108;9.358;2023-08-20T04:23:39;8.43;;;7.60;;
64986;SDS011;67903;52.108;9.358;2023-08-20T04:26:26;11.85;;;7.82;;
64986;SDS011;67903;52.108;9.358;2023-08-20T04:29:12;11.95;;;8.68;;
64986;SDS011;67903;52.108;9.358;2023-08-20T04:31:58;9.77;;;7.65;;
64986;SDS011;67903;52.108;9.358;2023-08-20T04:34:43;8.50;;;7.60;;
64986;SDS011;67903;52.108;9.358;2023-08-20T04:37:31;8.10;;;7.25;;
64986;SDS011;67903;52.108;9.358;2023-08-20T04:40:17;12.77;;;7.55;;
64986;SDS011;67903;52.108;9.358;2023-08-20T04:43:04;8.43;;;7.68;;
64986;SDS011;67903;52.108;9.358;2023-08-20T04:45:50;9.30;;;7.20;;
64986;SDS011;67903;52.108;9.358;2023-08-20T04:48:36;8.77;;;7.82;;
64986;SDS011;67903;52.108;9.358;2023-08-20T04:51:21;8.02;;;6.97;;
64986;SDS011;67903;52.108;9.358;2023-08-20T04:54:07;8.00;;;7.20;;
64986;SDS011;67903;52.108;9.358;2023-08-20T04:56:52;7.50;;;6.80;;
64986;SDS011;67903;52.108;9.358;2023-08-20T04:59:39;8.40;;;7.00;;
64986;SDS011;67903;52.108;9.358;2023-08-20T05:02:46;9.52;;;7.45;;
64986;SDS011;67903;52.108;9.358;2023-08-20T05:05:35;8.55;;;6.97;;
64986;SDS011;67903;52.108;9.358;2023-08-20T05:08:20;9.55;;;6.72;;
64986;SDS011;67903;52.108;9.358;2023-08-20T05:11:06;9.40;;;7.07;;
64986;SDS011;67903;52.108;9.358;2023-08-20T05:13:51;8.80;;;6.80;;
64986;SDS011;67903;52.108;9.358;2023-08-20T05:16:39;7.15;;;6.43;;
64986;SDS011;67903;52.108;9.358;2023-08-20T05:19:25;8.38;;;6.47;;
64986;SDS011;67903;52.108;9.358;2023-08-20T05:22:10;7.70;;;6.30;;
64986;SDS011;67903;52.108;9.358;2023-08-20T05:24:57;7.60;;;6.47;;
64986;SDS011;67903;52.108;9.358;2023-08-20T05:27:44;8.15;;;6.18;;
64986;SDS011;67903;52.108;9.358;2023-08-20T05:30:29;7.85;;;7.05;;
64986;SDS011;67903;52.108;9.358;2023-08-20T05:33:15;7.38;;;6.65;;
64986;SDS011;67903;52.108;9.358;2023-08-20T05:36:02;7.18;;;6.20;;
64986;SDS011;67903;52.108;9.358;2023-08-20T05:38:47;8.30;;;5.80;;
64986;SDS011;67903;52.108;9.358;2023-08-20T05:41:33;7.70;;;5.97;;
64986;SDS011;67903;52.108;9.358;2023-08-20T05:44:21;6.82;;;5.80;;
64986;SDS011;67903;52.108;9.358;2023-08-20T05:47:07;7.13;;;6.07;;
64986;SDS011;67903;52.108;9.358;2023-08-20T05:49:52;7.93;;;6.00;;
64986;SDS011;67903;52.108;9.358;2023-08-20T05:52:39;7.28;;;6.03;;
64986;SDS011;67903;52.108;9.358;2023-08-20T05:55:25;7.75;;;6.30;;
64986;SDS011;67903;52.108;9.358;2023-08-20T05:58:12;8.85;;;6.75;;
64986;SDS011;67903;52.108;9.358;2023-08-20T06:00:58;11.40;;;6.60;;
64986;SDS011;67903;52.108;9.358;2023-08-20T06:03:44;7.95;;;6.75;;
64986;SDS011;67903;52.108;9.358;2023-08-20T06:06:29;7.28;;;6.57;;
64986;SDS011;67903;52.108;9.358;2023-08-20T06:09:15;9.40;;;6.43;;
64986;SDS011;67903;52.108;9.358;2023-08-20T06:12:01;8.23;;;5.90;;
64986;SDS011;67903;52.108;9.358;2023-08-20T06:14:47;6.35;;;5.72;;
64986;SDS011;67903;52.108;9.358;2023-08-20T06:17:32;6.25;;;5.63;;
64986;SDS011;67903;52.108;9.358;2023-08-20T06:20:18;9.27;;;6.15;;
64986;SDS011;67903;52.108;9.358;2023-08-20T06:23:04;8.07;;;5.93;;
64986;SDS011;67903;52.108;9.358;2023-08-20T06:25:50;7.53;;;5.82;;
64986;SDS011;67903;52.108;9.358;2023-08-20T06:28:36;8.38;;;5.35;;
64986;SDS011;67903;52.108;9.358;2023-08-20T06:31:21;8.70;;;5.38;;
64986;SDS011;67903;52.108;9.358;2023-08-20T06:34:07;6.90;;;4.63;;
64986;SDS011;67903;52.108;9.358;2023-08-20T06:36:53;6.40;;;4.38;;
64986;SDS011;67903;52.108;9.358;2023-08-20T06:39:38;6.07;;;4.10;;
64986;SDS011;67903;52.108;9.358;2023-08-20T06:42:24;9.38;;;4.32;;
64986;SDS011;67903;52.108;9.358;2023-08-20T06:45:09;6.97;;;4.40;;
64986;SDS011;67903;52.108;9.358;2023-08-20T06:47:55;4.63;;;4.07;;
64986;SDS011;67903;52.108;9.358;2023-08-20T06:50:41;4.68;;;3.67;;
64986;SDS011;67903;52.108;9.358;2023-08-20T06:53:27;6.28;;;3.28;;
64986;SDS011;67903;52.108;9.358;2023-08-20T06:56:12;4.30;;;3.65;;
64986;SDS011;67903;52.108;9.358;2023-08-20T06:58:58;6.63;;;3.40;;
64986;SDS011;67903;52.108;9.358;2023-08-20T07:01:43;6.07;;;3.40;;
64986;SDS011;67903;52.108;9.358;2023-08-20T07:04:29;5.50;;;3.35;;
64986;SDS011;67903;52.108;9.358;2023-08-20T07:07:14;4.07;;;3.08;;
64986;SDS011;67903;52.108;9.358;2023-08-20T07:10:01;4.45;;;3.20;;
64986;SDS011;67903;52.108;9.358;2023-08-20T07:12:48;5.00;;;3.13;;
64986;SDS011;67903;52.108;9.358;2023-08-20T07:15:33;4.68;;;3.20;;
64986;SDS011;67903;52.108;9.358;2023-08-20T07:18:19;4.90;;;2.80;;
64986;SDS011;67903;52.108;9.358;2023-08-20T07:21:04;5.60;;;3.28;;
64986;SDS011;67903;52.108;9.358;2023-08-20T07:23:52;5.90;;;2.92;;
64986;SDS011;67903;52.108;9.358;2023-08-20T07:26:38;4.13;;;2.85;;
64986;SDS011;67903;52.108;9.358;2023-08-20T07:29:24;4.72;;;3.08;;
64986;SDS011;67903;52.108;9.358;2023-08-20T07:32:10;4.85;;;2.85;;
64986;SDS011;67903;52.108;9.358;2023-08-20T07:34:56;3.67;;;2.97;;
64986;SDS011;67903;52.108;9.358;2023-08-20T07:37:42;3.75;;;3.00;;
64986;SDS011;67903;52.108;9.358;2023-08-20T07:40:28;3.83;;;2.90;;
64986;SDS011;67903;52.108;9.358;2023-08-20T07:43:13;4.70;;;3.20;;
64986;SDS011;67903;52.108;9.358;2023-08-20T07:45:59;5.03;;;3.00;;
64986;SDS011;67903;52.108;9.358;2023-08-20T07:48:44;5.35;;;2.80;;
64986;SDS011;67903;52.108;9.358;2023-08-20T07:51:30;4.65;;;2.83;;
64986;SDS011;67903;52.108;9.358;2023-08-20T07:54:16;5.35;;;3.35;;
64986;SDS011;67903;52.108;9.358;2023-08-20T07:57:01;4.25;;;3.10;;
64986;SDS011;67903;52.108;9.358;2023-08-20T07:59:47;3.15;;;2.85;;
64986;SDS011;67903;52.108;9.358;2023-08-20T08:02:32;5.10;;;3.00;;
64986;SDS011;67903;52.108;9.358;2023-08-20T08:05:18;4.80;;;2.70;;
64986;SDS011;67903;52.108;9.358;2023-08-20T08:08:04;4.28;;;2.97;;
64986;SDS011;67903;52.108;9.358;2023-08-20T08:10:50;6.55;;;3.17;;
64986;SDS011;67903;52.108;9.358;2023-08-20T08:13:36;6.13;;;3.35;;
64986;SDS011;67903;52.108;9.358;2023-08-20T08:16:21;4.68;;;3.30;;
64986;SDS011;67903;52.108;9.358;2023-08-20T08:19:07;5.93;;;3.60;;
64986;SDS011;67903;52.108;9.358;2023-08-20T08:21:53;4.90;;;3.40;;
64986;SDS011;67903;52.108;9.358;2023-08-20T08:24:39;4.43;;;3.45;;
64986;SDS011;67903;52.108;9.358;2023-08-20T08:27:26;4.20;;;3.80;;
64986;SDS011;67903;52.108;9.358;2023-08-20T08:30:12;5.45;;;3.30;;
64986;SDS011;67903;52.108;9.358;2023-08-20T08:32:59;4.05;;;3.38;;
64986;SDS011;67903;52.108;9.358;2023-08-20T08:35:44;5.05;;;3.70;;
64986;SDS011;67903;52.108;9.358;2023-08-20T08:38:30;3.95;;;3.55;;
64986;SDS011;67903;52.108;9.358;2023-08-20T08:41:15;5.47;;;3.25;;
64986;SDS011;67903;52.108;9.358;2023-08-20T08:44:02;4.85;;;4.20;;
64986;SDS011;67903;52.108;9.358;2023-08-20T08:46:48;4.25;;;3.85;;
64986;SDS011;67903;52.108;9.358;2023-08-20T08:49:36;4.80;;;3.65;;
64986;SDS011;67903;52.108;9.358;2023-08-20T08:52:25;5.55;;;4.10;;
64986;SDS011;67903;52.108;9.358;2023-08-20T08:55:11;4.97;;;3.80;;
64986;SDS011;67903;52.108;9.358;2023-08-20T08:57:57;7.10;;;5.38;;
64986;SDS011;67903;52.108;9.358;2023-08-20T09:00:43;3.92;;;3.42;;
64986;SDS011;67903;52.108;9.358;2023-08-20T09:03:28;5.57;;;4.22;;
64986;SDS011;67903;52.108;9.358;2023-08-20T09:06:14;5.03;;;3.90;;
64986;SDS011;67903;52.108;9.358;2023-08-20T09:09:05;5.28;;;3.67;;
64986;SDS011;67903;52.108;9.358;2023-08-20T09:11:51;4.78;;;4.28;;
64986;SDS011;67903;52.108;9.358;2023-08-20T09:14:37;5.47;;;4.43;;
64986;SDS011;67903;52.108;9.358;2023-08-20T09:17:24;4.35;;;3.95;;
64986;SDS011;67903;52.108;9.358;2023-08-20T09:20:12;4.82;;;4.32;;
64986;SDS011;67903;52.108;9.358;2023-08-20T09:22:58;7.05;;;4.50;;
64986;SDS011;67903;52.108;9.358;2023-08-20T09:25:44;5.05;;;4.57;;
64986;SDS011;67903;52.108;9.358;2023-08-20T09:28:43;4.88;;;4.50;;
64986;SDS011;67903;52.108;9.358;2023-08-20T09:31:38;6.15;;;5.30;;
64986;SDS011;67903;52.108;9.358;2023-08-20T09:34:24;7.07;;;5.13;;
64986;SDS011;67903;52.108;9.358;2023-08-20T09:37:14;7.13;;;4.85;;
64986;SDS011;67903;52.108;9.358;2023-08-20T09:40:03;5.20;;;4.80;;
64986;SDS011;67903;52.108;9.358;2023-08-20T09:42:49;5.40;;;4.90;;
64986;SDS011;67903;52.108;9.358;2023-08-20T09:45:35;7.20;;;6.25;;
64986;SDS011;67903;52.108;9.358;2023-08-20T09:48:23;7.60;;;5.50;;
64986;SDS011;67903;52.108;9.358;2023-08-20T09:51:12;6.15;;;5.60;;
64986;SDS011;67903;52.108;9.358;2023-08-20T09:54:02;6.13;;;5.10;;
64986;SDS011;67903;52.108;9.358;2023-08-20T09:56:54;5.18;;;4.68;;
64986;SDS011;67903;52.108;9.358;2023-08-20T09:59:42;5.82;;;5.20;;
64986;SDS011;67903;52.108;9.358;2023-08-20T10:02:29;6.63;;;5.13;;
64986;SDS011;67903;52.108;9.358;2023-08-20T10:05:15;6.72;;;4.78;;
64986;SDS011;67903;52.108;9.358;2023-08-20T10:08:00;5.10;;;4.60;;
64986;SDS011;67903;52.108;9.358;2023-08-20T10:10:48;7.47;;;5.53;;
64986;SDS011;67903;52.108;9.358;2023-08-20T10:13:34;6.10;;;5.50;;
64986;SDS011;67903;52.108;9.358;2023-08-20T10:16:20;5.15;;;4.60;;
64986;SDS011;67903;52.108;9.358;2023-08-20T10:19:08;4.88;;;4.38;;
64986;SDS011;67903;52.108;9.358;2023-08-20T10:21:54;5.45;;;4.95;;
64986;SDS011;67903;52.108;9.358;2023-08-20T10:24:47;5.68;;;4.57;;
64986;SDS011;67903;52.108;9.358;2023-08-20T10:27:41;5.57;;;4.70;;
64986;SDS011;67903;52.108;9.358;2023-08-20T10:30:30;5.53;;;4.30;;
64986;SDS011;67903;52.108;9.358;2023-08-20T10:33:16;4.95;;;4.45;;
64986;SDS011;67903;52.108;9.358;2023-08-20T10:36:13;5.35;;;4.20;;
64986;SDS011;67903;52.108;9.358;2023-08-20T10:39:03;4.95;;;4.53;;
64986;SDS011;67903;52.108;9.358;2023-08-20T10:41:50;4.75;;;4.25;;
64986;SDS011;67903;52.108;9.358;2023-08-20T10:45:05;4.70;;;4.20;;
64986;SDS011;67903;52.108;9.358;2023-08-20T10:47:53;5.05;;;4.65;;
64986;SDS011;67903;52.108;9.358;2023-08-20T10:50:40;17.35;;;16.02;;
64986;SDS011;67903;52.108;9.358;2023-08-20T10:53:25;8.40;;;7.70;;
64986;SDS011;67903;52.108;9.358;2023-08-20T10:56:11;4.70;;;4.30;;
64986;SDS011;67903;52.108;9.358;2023-08-20T10:59:05;4.80;;;4.30;;
64986;SDS011;67903;52.108;9.358;2023-08-20T11:01:52;4.40;;;4.00;;
64986;SDS011;67903;52.108;9.358;2023-08-20T11:04:39;4.25;;;3.90;;
64986;SDS011;67903;52.108;9.358;2023-08-20T11:07:25;4.15;;;3.85;;
64986;SDS011;67903;52.108;9.358;2023-08-20T11:10:13;4.47;;;4.05;;
64986;SDS011;67903;52.108;9.358;2023-08-20T11:12:59;4.28;;;3.72;;
64986;SDS011;67903;52.108;9.358;2023-08-20T11:15:48;4.15;;;3.72;;
64986;SDS011;67903;52.108;9.358;2023-08-20T11:18:33;3.97;;;3.58;;
64986;SDS011;67903;52.108;9.358;2023-08-20T11:21:19;3.70;;;3.40;;
64986;SDS011;67903;52.108;9.358;2023-08-20T11:24:05;4.00;;;3.35;;
64986;SDS011;67903;52.108;9.358;2023-08-20T11:26:53;4.32;;;3.88;;
64986;SDS011;67903;52.108;9.358;2023-08-20T11:29:43;4.20;;;3.80;;
64986;SDS011;67903;52.108;9.358;2023-08-20T11:32:30;5.93;;;3.33;;
64986;SDS011;67903;52.108;9.358;2023-08-20T11:35:16;3.47;;;3.17;;
64986;SDS011;67903;52.108;9.358;2023-08-20T11:38:02;3.70;;;3.40;;
64986;SDS011;67903;52.108;9.358;2023-08-20T11:40:49;3.90;;;3.42;;
64986;SDS011;67903;52.108;9.358;2023-08-20T11:43:34;5.95;;;4.03;;
64986;SDS011;67903;52.108;9.358;2023-08-20T11:46:21;3.67;;;3.38;;
64986;SDS011;67903;52.108;9.358;2023-08-20T11:49:08;4.40;;;4.00;;
64986;SDS011;67903;52.108;9.358;2023-08-20T11:51:55;4.13;;;3.80;;
64986;SDS011;67903;52.108;9.358;2023-08-20T11:54:41;4.65;;;3.58;;
64986;SDS011;67903;52.108;9.358;2023-08-20T11:57:30;4.07;;;3.67;;
64986;SDS011;67903;52.108;9.358;2023-08-20T12:00:23;4.10;;;3.60;;
64986;SDS011;67903;52.108;9.358;2023-08-20T12:03:11;4.20;;;3.80;;
64986;SDS011;67903;52.108;9.358;2023-08-20T12:05:57;4.00;;;3.60;;
64986;SDS011;67903;52.108;9.358;2023-08-20T12:08:43;4.38;;;3.70;;
64986;SDS011;67903;52.108;9.358;2023-08-20T12:11:28;4.80;;;3.70;;
64986;SDS011;67903;52.108;9.358;2023-08-20T12:14:16;4.07;;;3.72;;
64986;SDS011;67903;52.108;9.358;2023-08-20T12:17:02;5.15;;;3.55;;
64986;SDS011;67903;52.108;9.358;2023-08-20T12:19:48;4.03;;;3.72;;
64986;SDS011;67903;52.108;9.358;2023-08-20T12:22:34;4.07;;;3.67;;
64986;SDS011;67903;52.108;9.358;2023-08-20T12:25:20;5.00;;;3.65;;
64986;SDS011;67903;52.108;9.358;2023-08-20T12:28:05;4.55;;;3.90;;
64986;SDS011;67903;52.108;9.358;2023-08-20T12:30:51;5.28;;;3.55;;
64986;SDS011;67903;52.108;9.358;2023-08-20T12:33:37;5.22;;;4.15;;
64986;SDS011;67903;52.108;9.358;2023-08-20T12:36:23;4.65;;;3.78;;
64986;SDS011;67903;52.108;9.358;2023-08-20T12:39:09;4.55;;;3.80;;
64986;SDS011;67903;52.108;9.358;2023-08-20T12:41:54;3.55;;;3.25;;
64986;SDS011;67903;52.108;9.358;2023-08-20T12:44:41;3.90;;;3.60;;
64986;SDS011;67903;52.108;9.358;2023-08-20T12:47:26;3.58;;;3.28;;
64986;SDS011;67903;52.108;9.358;2023-08-20T12:50:12;4.78;;;3.33;;
64986;SDS011;67903;52.108;9.358;2023-08-20T12:52:59;5.20;;;4.35;;
64986;SDS011;67903;52.108;9.358;2023-08-20T12:55:45;4.93;;;3.97;;
64986;SDS011;67903;52.108;9.358;2023-08-20T12:58:31;4.00;;;3.70;;
64986;SDS011;67903;52.108;9.358;2023-08-20T13:01:16;4.05;;;3.65;;
64986;SDS011;67903;52.108;9.358;2023-08-20T13:04:04;3.70;;;3.40;;
64986;SDS011;67903;52.108;9.358;2023-08-20T13:06:50;3.58;;;3.28;;
64986;SDS011;67903;52.108;9.358;2023-08-20T13:09:35;4.78;;;3.78;;
64986;SDS011;67903;52.108;9.358;2023-08-20T13:12:21;4.03;;;3.72;;
64986;SDS011;67903;52.108;9.358;2023-08-20T13:15:12;4.15;;;3.75;;
64986;SDS011;67903;52.108;9.358;2023-08-20T13:17:58;4.03;;;3.70;;
64986;SDS011;67903;52.108;9.358;2023-08-20T13:20:43;3.85;;;3.55;;
64986;SDS011;67903;52.108;9.358;2023-08-20T13:23:29;3.83;;;3.47;;
64986;SDS011;67903;52.108;9.358;2023-08-20T13:26:15;4.00;;;3.60;;
64986;SDS011;67903;52.108;9.358;2023-08-20T13:29:00;4.32;;;3.67;;
64986;SDS011;67903;52.108;9.358;2023-08-20T13:31:46;4.40;;;3.70;;
64986;SDS011;67903;52.108;9.358;2023-08-20T13:34:31;4.28;;;3.67;;
64986;SDS011;67903;52.108;9.358;2023-08-20T13:37:17;3.63;;;3.33;;
64986;SDS011;67903;52.108;9.358;2023-08-20T13:40:03;4.10;;;3.70;;
64986;SDS011;67903;52.108;9.358;2023-08-20T13:42:49;3.80;;;3.50;;
64986;SDS011;67903;52.108;9.358;2023-08-20T13:45:35;3.85;;;3.55;;
64986;SDS011;67903;52.108;9.358;2023-08-20T13:48:20;4.55;;;4.00;;
64986;SDS011;67903;52.108;9.358;2023-08-20T13:51:06;4.57;;;3.50;;
64986;SDS011;67903;52.108;9.358;2023-08-20T13:53:51;5.95;;;3.78;;
64986;SDS011;67903;52.108;9.358;2023-08-20T13:56:37;3.83;;;3.53;;
64986;SDS011;67903;52.108;9.358;2023-08-20T13:59:22;3.88;;;3.55;;
64986;SDS011;67903;52.108;9.358;2023-08-20T14:02:08;4.53;;;4.13;;
64986;SDS011;67903;52.108;9.358;2023-08-20T14:04:53;4.05;;;3.65;;
64986;SDS011;67903;52.108;9.358;2023-08-20T14:07:39;3.88;;;3.58;;
64986;SDS011;67903;52.108;9.358;2023-08-20T14:10:25;4.00;;;3.55;;
64986;SDS011;67903;52.108;9.358;2023-08-20T14:13:11;5.35;;;3.70;;
64986;SDS011;67903;52.108;9.358;2023-08-20T14:15:56;4.00;;;3.63;;
64986;SDS011;67903;52.108;9.358;2023-08-20T14:18:42;3.90;;;3.60;;
64986;SDS011;67903;52.108;9.358;2023-08-20T14:21:28;8.48;;;6.60;;
64986;SDS011;67903;52.108;9.358;2023-08-20T14:24:13;6.82;;;4.28;;
64986;SDS011;67903;52.108;9.358;2023-08-20T14:27:02;4.10;;;3.70;;
64986;SDS011;67903;52.108;9.358;2023-08-20T14:29:47;5.22;;;3.75;;
64986;SDS011;67903;52.108;9.358;2023-08-20T14:32:33;3.90;;;3.40;;
64986;SDS011;67903;52.108;9.358;2023-08-20T14:35:23;3.40;;;3.20;;
64986;SDS011;67903;52.108;9.358;2023-08-20T14:38:10;6.95;;;5.90;;
64986;SDS011;67903;52.108;9.358;2023-08-20T14:41:01;4.53;;;3.50;;
64986;SDS011;67903;52.108;9.358;2023-08-20T14:43:48;3.85;;;3.45;;
64986;SDS011;67903;52.108;9.358;2023-08-20T14:46:34;4.13;;;3.60;;
64986;SDS011;67903;52.108;9.358;2023-08-20T14:49:20;3.40;;;3.10;;
64986;SDS011;67903;52.108;9.358;2023-08-20T14:52:05;3.28;;;2.97;;
64986;SDS011;67903;52.108;9.358;2023-08-20T14:55:04;4.20;;;3.13;;
64986;SDS011;67903;52.108;9.358;2023-08-20T14:57:53;3.60;;;3.30;;
64986;SDS011;67903;52.108;9.358;2023-08-20T15:00:39;3.97;;;3.13;;
64986;SDS011;67903;52.108;9.358;2023-08-20T15:03:25;3.55;;;3.25;;
64986;SDS011;67903;52.108;9.358;2023-08-20T15:06:10;3.80;;;3.35;;
64986;SDS011;67903;52.108;9.358;2023-08-20T15:08:56;4.05;;;3.25;;
64986;SDS011;67903;52.108;9.358;2023-08-20T15:11:42;4.95;;;3.25;;
64986;SDS011;67903;52.108;9.358;2023-08-20T15:14:28;3.55;;;3.20;;
64986;SDS011;67903;52.108;9.358;2023-08-20T15:17:14;4.03;;;3.67;;
64986;SDS011;67903;52.108;9.358;2023-08-20T15:20:00;4.25;;;3.22;;
64986;SDS011;67903;52.108;9.358;2023-08-20T15:22:45;3.40;;;3.13;;
64986;SDS011;67903;52.108;9.358;2023-08-20T15:25:31;3.50;;;3.20;;
64986;SDS011;67903;52.108;9.358;2023-08-20T15:28:18;4.07;;;3.67;;
64986;SDS011;67903;52.108;9.358;2023-08-20T15:31:04;4.10;;;3.03;;
64986;SDS011;67903;52.108;9.358;2023-08-20T15:33:50;4.50;;;4.10;;
64986;SDS011;67903;52.108;9.358;2023-08-20T15:36:37;4.35;;;3.95;;
64986;SDS011;67903;52.108;9.358;2023-08-20T15:39:22;3.55;;;3.10;;
64986;SDS011;67903;52.108;9.358;2023-08-20T15:42:09;3.47;;;3.17;;
64986;SDS011;67903;52.108;9.358;2023-08-20T15:44:54;3.88;;;3.58;;
64986;SDS011;67903;52.108;9.358;2023-08-20T15:47:41;4.05;;;3.03;;
64986;SDS011;67903;52.108;9.358;2023-08-20T15:50:26;3.60;;;3.30;;
64986;SDS011;67903;52.108;9.358;2023-08-20T15:53:13;3.70;;;3.40;;
64986;SDS011;67903;52.108;9.358;2023-08-20T15:55:59;3.83;;;3.55;;
64986;SDS011;67903;52.108;9.358;2023-08-20T15:58:44;4.15;;;3.75;;
64986;SDS011;67903;52.108;9.358;2023-08-20T16:01:30;6.38;;;4.22;;
64986;SDS011;67903;52.108;9.358;2023-08-20T16:04:16;4.85;;;4.03;;
64986;SDS011;67903;52.108;9.358;2023-08-20T16:07:02;4.43;;;4.03;;
64986;SDS011;67903;52.108;9.358;2023-08-20T16:09:48;4.82;;;4.22;;
64986;SDS011;67903;52.108;9.358;2023-08-20T16:12:33;5.43;;;4.38;;
64986;SDS011;67903;52.108;9.358;2023-08-20T16:15:19;4.40;;;4.00;;
64986;SDS011;67903;52.108;9.358;2023-08-20T16:18:05;5.43;;;4.55;;
64986;SDS011;67903;52.108;9.358;2023-08-20T16:20:50;5.18;;;4.28;;
64986;SDS011;67903;52.108;9.358;2023-08-20T16:23:36;4.80;;;4.38;;
64986;SDS011;67903;52.108;9.358;2023-08-20T16:26:21;5.35;;;4.60;;
64986;SDS011;67903;52.108;9.358;2023-08-20T16:29:07;5.10;;;4.18;;
64986;SDS011;67903;52.108;9.358;2023-08-20T16:31:52;6.55;;;4.80;;
64986;SDS011;67903;52.108;9.358;2023-08-20T16:34:38;6.05;;;3.85;;
64986;SDS011;67903;52.108;9.358;2023-08-20T16:37:24;4.60;;;4.07;;
64986;SDS011;67903;52.108;9.358;2023-08-20T16:40:22;6.05;;;3.97;;
64986;SDS011;67903;52.108;9.358;2023-08-20T16:43:08;4.68;;;4.28;;
64986;SDS011;67903;52.108;9.358;2023-08-20T16:45:55;5.05;;;4.10;;
64986;SDS011;67903;52.108;9.358;2023-08-20T16:48:43;5.68;;;4.18;;